»·PEaware :: N737PD KJAC-KRKS

N737PD :: KJAC-KRKS

FLIGHT INFORMATION

Flight Status: Arrived
Operator: Privately registered:
United States
More flights under this callsign
Pilot: Brandon K. (3556)
Aircraft: PIPER PA-28R-201 ARROW
(P28R)
More flights by this aircraft type
Origin: KJAC Jackson Hole
United States
Destination: KRKS Rock Springs-Sweetwater
United States
More flights between these airports :: More routes between these airports
Route: BPI
File this flight plan on PilotEdge
Remarks:
Altitude:
(Current/Filed)
11,500ft
Speed:
(Current/Filed)
140kts
Departed: 12-Nov-17 07:07 AM
Arrived: 12-Nov-17 08:15 AM
Distance/Time
Traveled:
141nm/1:08
Distance/Time
To Go:
Arrived

Flight Plot

Page will automatically refresh every two minutes.

Flight plan parsing failed; only flown route is shown


Map Options




Map Legend


Flown Route
Filed Route
Departure Airport
Arrival Airport
Navaid (VOR, NDB)
Fix

Horizontal Profiles

Position Reports

Time Latitude Longitude Heading Altitude Ground
Speed
12-Nov-17 07:00 43.601105 -110.737981 290 6454ft 0kts
12-Nov-17 07:01 43.601105 -110.737981 290 6454ft 0kts
12-Nov-17 07:02 43.601105 -110.737982 290 6454ft 0kts
12-Nov-17 07:03 43.601105 -110.737982 290 6454ft 0kts
12-Nov-17 07:04 43.601105 -110.737982 290 6454ft 0kts
12-Nov-17 07:05 43.601105 -110.737982 290 6454ft 0kts
12-Nov-17 07:06 43.601786 -110.738872 350 6454ft 6kts
12-Nov-17 07:07 43.603945 -110.737840 18 6454ft 10kts
12-Nov-17 07:08 43.607225 -110.736229 15 6454ft 15kts
12-Nov-17 07:09 43.611578 -110.734098 20 6454ft 12kts
12-Nov-17 07:10 43.614465 -110.732702 19 6454ft 11kts
12-Nov-17 07:11 43.614916 -110.734022 198 6454ft 0kts
12-Nov-17 07:12 43.602776 -110.739752 196 6657ft 85kts
12-Nov-17 07:13 43.579641 -110.749826 196 7529ft 89kts
12-Nov-17 07:14 43.556192 -110.760105 196 8382ft 89kts
12-Nov-17 07:15 43.532378 -110.770550 196 9180ft 91kts
12-Nov-17 07:16 43.508190 -110.781150 197 9943ft 91kts
12-Nov-17 07:17 43.483723 -110.791795 197 10638ft 93kts
12-Nov-17 07:18 43.460526 -110.781315 145 11306ft 92kts
12-Nov-17 07:19 43.435134 -110.760164 148 11493ft 127kts
12-Nov-17 07:20 43.402652 -110.734744 149 11486ft 137kts
12-Nov-17 07:21 43.369095 -110.708805 149 11485ft 139kts
12-Nov-17 07:22 43.338441 -110.676718 140 11485ft 139kts
12-Nov-17 07:23 43.308051 -110.643965 140 11485ft 139kts
12-Nov-17 07:24 43.276459 -110.614032 150 11485ft 139kts
12-Nov-17 07:25 43.242387 -110.588895 150 11486ft 139kts
12-Nov-17 07:26 43.208161 -110.563796 150 11486ft 139kts
12-Nov-17 07:27 43.173615 -110.538783 146 11487ft 142kts
12-Nov-17 07:28 43.139592 -110.513797 145 11485ft 135kts
12-Nov-17 07:29 43.107749 -110.490266 148 11484ft 125kts
12-Nov-17 07:30 43.077826 -110.468514 149 11482ft 120kts
12-Nov-17 07:31 43.048314 -110.447054 149 11483ft 120kts
12-Nov-17 07:32 43.018914 -110.425649 149 11482ft 120kts
12-Nov-17 07:33 42.989334 -110.404068 150 11481ft 125kts
12-Nov-17 07:34 42.957323 -110.380995 149 11485ft 133kts
12-Nov-17 07:35 42.924079 -110.356837 149 11486ft 137kts
12-Nov-17 07:36 42.892298 -110.333739 151 11485ft 140kts
12-Nov-17 07:37 42.857914 -110.308866 153 11485ft 140kts
12-Nov-17 07:38 42.823403 -110.284042 153 11466ft 140kts
12-Nov-17 07:39 42.788954 -110.259313 152 11467ft 138kts
12-Nov-17 07:40 42.755313 -110.235012 152 11467ft 136kts
12-Nov-17 07:41 42.721947 -110.210974 152 11467ft 135kts
12-Nov-17 07:42 42.688381 -110.186876 151 11467ft 139kts
12-Nov-17 07:43 42.654098 -110.162159 153 11467ft 140kts
12-Nov-17 07:44 42.619629 -110.137554 153 11467ft 140kts
12-Nov-17 07:45 42.585287 -110.113087 152 11467ft 138kts
12-Nov-17 07:46 42.554935 -110.082239 141 11467ft 136kts
12-Nov-17 07:47 42.525421 -110.050364 141 11467ft 136kts
12-Nov-17 07:48 42.495871 -110.018496 141 11467ft 135kts
12-Nov-17 07:49 42.466246 -109.986681 140 11467ft 138kts
12-Nov-17 07:50 42.435844 -109.953797 142 11467ft 140kts
12-Nov-17 07:51 42.405310 -109.921089 142 11467ft 140kts
12-Nov-17 07:52 42.374989 -109.888638 141 11466ft 137kts
12-Nov-17 07:53 42.345385 -109.856865 141 11467ft 136kts
12-Nov-17 07:54 42.315901 -109.825292 141 11491ft 134kts
12-Nov-17 07:55 42.286515 -109.793873 141 11494ft 135kts
12-Nov-17 07:56 42.256930 -109.762283 141 11494ft 136kts
12-Nov-17 07:57 42.227308 -109.730699 141 11494ft 136kts
12-Nov-17 07:58 42.197610 -109.699066 141 11494ft 136kts
12-Nov-17 07:59 42.168055 -109.667625 141 11494ft 136kts
12-Nov-17 08:00 42.138386 -109.636091 141 11494ft 136kts
12-Nov-17 08:01 42.108711 -109.604594 141 11494ft 136kts
12-Nov-17 08:02 42.079101 -109.573213 141 11494ft 136kts
12-Nov-17 08:03 42.049405 -109.541785 141 11494ft 136kts
12-Nov-17 08:04 42.019768 -109.510448 141 11494ft 136kts
12-Nov-17 08:05 41.989880 -109.478987 140 11476ft 138kts
12-Nov-17 08:06 41.964719 -109.452530 140 11468ft 138kts
12-Nov-17 08:07 41.929361 -109.415349 140 11468ft 139kts
12-Nov-17 08:08 41.898963 -109.383373 140 11468ft 140kts
12-Nov-17 08:09 41.874443 -109.357607 140 11467ft 139kts
12-Nov-17 08:10 41.845067 -109.326775 140 11495ft 137kts
12-Nov-17 08:11 41.817234 -109.292216 135 11495ft 136kts
12-Nov-17 08:12 41.790064 -109.257026 135 11495ft 136kts
12-Nov-17 08:13 41.757460 -109.214777 135 10958ft 142kts
12-Nov-17 08:14 41.733816 -109.184113 135 10423ft 141kts
12-Nov-17 08:15 41.705705 -109.147654 135 9833ft 140kts
12-Nov-17 08:16 41.677934 -109.111649 135 9278ft 139kts
12-Nov-17 08:17 41.642406 -109.109566 195 8500ft 125kts
12-Nov-17 08:18 41.612027 -109.117116 148 7504ft 96kts
12-Nov-17 08:19 41.599392 -109.092277 101 7032ft 76kts
12-Nov-17 08:20 41.596198 -109.073825 100 6762ft 17kts
12-Nov-17 08:21 41.596905 -109.072544 11 6762ft 5kts
12-Nov-17 08:22 41.598285 -109.072298 315 6762ft 0kts
12-Nov-17 08:23 41.598285 -109.072298 315 6762ft 0kts
12-Nov-17 08:24 41.598285 -109.072298 315 6762ft 0kts
12-Nov-17 08:25 41.598285 -109.072298 315 6762ft 0kts
12-Nov-17 08:26 41.598285 -109.072298 315 6762ft 0kts
12-Nov-17 08:27 41.598285 -109.072298 315 6762ft 0kts
12-Nov-17 08:28 41.598285 -109.072298 315 6762ft 0kts
12-Nov-17 08:29 41.598285 -109.072298 315 6762ft 0kts

Navigation Log

Ident Type
Flight plan parsing failed, navigation log unavailable